createdAt,value
2017-10-16T00:01:24.467Z,102028.55
2017-10-16T00:03:50.763Z,102021.54
2017-10-16T00:06:16.945Z,102022.87
2017-10-16T00:08:43.458Z,102017.17
2017-10-16T00:11:09.894Z,102014.98
2017-10-16T00:13:36.420Z,102012.39
2017-10-16T00:16:02.610Z,102007.56
2017-10-16T00:18:28.867Z,102010.20
2017-10-16T00:20:55.062Z,102011.52
2017-10-16T00:23:21.257Z,102011.99
2017-10-16T00:25:47.585Z,102012.42
2017-10-16T00:28:13.782Z,102011.55
2017-10-16T00:30:39.962Z,102012.87
2017-10-16T00:33:06.219Z,102013.73
2017-10-16T00:35:32.431Z,102019.02
2017-10-16T00:38:05.473Z,102010.26
2017-10-16T00:40:31.999Z,102014.61
2017-10-16T00:42:58.192Z,102014.64
2017-10-16T00:45:24.405Z,102021.23
2017-10-16T00:47:50.710Z,102017.30
2017-10-16T00:50:16.882Z,102023.42
2017-10-16T00:52:43.078Z,102023.44
2017-10-16T00:55:09.292Z,102019.95
2017-10-16T00:57:35.501Z,102020.37
2017-10-16T01:00:02.409Z,102020.39
2017-10-16T01:02:28.623Z,102016.02
2017-10-16T01:04:54.822Z,102013.81
2017-10-16T01:07:21.429Z,102019.09
2017-10-16T01:09:47.744Z,102018.65
2017-10-16T01:12:13.953Z,102010.75
2017-10-16T01:14:40.287Z,102011.23
2017-10-16T01:17:06.753Z,102009.02
2017-10-16T01:19:32.950Z,102002.44
2017-10-16T01:21:59.250Z,102011.23
2017-10-16T01:24:25.742Z,102011.23
2017-10-16T01:26:51.977Z,102013.42
2017-10-16T01:29:18.354Z,102010.78
2017-10-16T01:31:44.574Z,102008.62
2017-10-16T01:34:10.783Z,102004.24
2017-10-16T01:36:37.043Z,101998.55
2017-10-16T01:39:03.627Z,101994.17
2017-10-16T01:41:30.157Z,101997.25
2017-10-16T01:43:56.801Z,101990.24
2017-10-16T01:46:23.013Z,101984.54
2017-10-16T01:48:49.217Z,101984.98
2017-10-16T01:51:15.458Z,101983.22
2017-10-16T01:53:41.658Z,101983.25
2017-10-16T01:56:07.854Z,101985.45
2017-10-16T01:58:34.238Z,101988.95
2017-10-16T02:01:00.500Z,101988.55
2017-10-16T02:03:27.137Z,101985.92
2017-10-16T02:05:53.668Z,101988.54
2017-10-16T02:08:19.849Z,101993.80
2017-10-16T02:10:46.333Z,101991.61
2017-10-16T02:13:12.658Z,101996.89
2017-10-16T02:15:38.849Z,101994.70
2017-10-16T02:18:05.038Z,101995.13
2017-10-16T02:20:31.261Z,101992.97
2017-10-16T02:22:57.830Z,101988.99
2017-10-16T02:25:24.315Z,101986.39
2017-10-16T02:27:50.493Z,101984.64
2017-10-16T02:30:16.806Z,101977.64
2017-10-16T02:32:43.014Z,101985.98
2017-10-16T02:35:09.218Z,101982.45
2017-10-16T02:37:35.537Z,101986.83
2017-10-16T02:40:01.988Z,101981.12
2017-10-16T02:42:28.174Z,101982.91
2017-10-16T02:44:54.430Z,101985.97
2017-10-16T02:47:20.876Z,101989.07
2017-10-16T02:49:47.054Z,101984.66
2017-10-16T02:52:13.423Z,101982.49
2017-10-16T02:54:39.610Z,101988.61
2017-10-16T02:57:05.798Z,101985.56
2017-10-16T02:59:32.113Z,101993.02
2017-10-16T03:01:58.306Z,101994.36
2017-10-16T03:04:24.761Z,101995.69
2017-10-16T03:06:50.994Z,101995.24
2017-10-16T03:09:17.217Z,101995.24
2017-10-16T03:11:43.451Z,101993.92
2017-10-16T03:14:10.005Z,101993.94
2017-10-16T03:16:36.242Z,101997.45
2017-10-16T03:19:02.436Z,102001.40
2017-10-16T03:21:28.754Z,102004.46
2017-10-16T03:23:54.938Z,101996.16
2017-10-16T03:26:21.114Z,101991.34
2017-10-16T03:28:47.423Z,101990.47
2017-10-16T03:31:13.612Z,101986.11
2017-10-16T03:33:39.812Z,101984.35
2017-10-16T03:36:06.367Z,101983.06
2017-10-16T03:38:32.607Z,101988.73
2017-10-16T03:40:58.795Z,101989.63
2017-10-16T03:43:25.352Z,101981.31
2017-10-16T03:45:51.546Z,101987.87
2017-10-16T03:48:17.734Z,101992.70
2017-10-16T03:50:44.245Z,101991.84
2017-10-16T03:53:10.424Z,101995.39
2017-10-16T03:55:36.616Z,101994.52
2017-10-16T03:58:03.299Z,101996.26
2017-10-16T04:00:29.510Z,101998.88
2017-10-16T04:02:55.719Z,102005.88
2017-10-16T04:05:22.131Z,102004.59
2017-10-16T04:07:48.325Z,102007.22
2017-10-16T04:10:14.518Z,102003.70
2017-10-16T04:12:40.832Z,102004.11
2017-10-16T04:15:07.076Z,102005.88
2017-10-16T04:17:33.315Z,102009.42
2017-10-16T04:19:59.618Z,102013.78
2017-10-16T04:22:25.813Z,102017.31
2017-10-16T04:24:52.021Z,102020.86
2017-10-16T04:27:18.367Z,102016.92
2017-10-16T04:29:44.814Z,102018.23
2017-10-16T04:32:11.006Z,102026.53
2017-10-16T04:34:37.343Z,102028.72
2017-10-16T04:37:03.527Z,102023.03
2017-10-16T04:39:29.699Z,102028.29
2017-10-16T04:41:55.954Z,102028.75
2017-10-16T04:44:22.489Z,102023.05
2017-10-16T04:46:48.701Z,102030.49
2017-10-16T04:49:14.933Z,102033.56
2017-10-16T04:51:41.162Z,102030.95
2017-10-16T04:54:07.443Z,102035.31
2017-10-16T04:56:34.045Z,102034.45
2017-10-16T04:59:00.367Z,102021.77
2017-10-16T05:01:26.545Z,102023.95
2017-10-16T05:03:52.743Z,102023.96
2017-10-16T05:06:19.024Z,102023.95
2017-10-16T05:08:45.280Z,102023.06
2017-10-16T05:11:11.482Z,102027.88
2017-10-16T05:13:37.801Z,102022.65
2017-10-16T05:16:04.018Z,102021.78
2017-10-16T05:18:36.501Z,102029.65
2017-10-16T05:21:03.235Z,102027.48
2017-10-16T05:23:29.429Z,102021.32
2017-10-16T05:25:55.612Z,102020.91
2017-10-16T05:28:22.320Z,102024.86
2017-10-16T05:30:48.736Z,102025.70
2017-10-16T05:33:14.928Z,102018.71
2017-10-16T05:35:41.160Z,102011.71
2017-10-16T05:38:07.342Z,102014.78
2017-10-16T05:40:33.539Z,102016.53
2017-10-16T05:42:59.798Z,102014.80
2017-10-16T05:45:25.990Z,102013.89
2017-10-16T05:47:52.182Z,102009.94
2017-10-16T05:50:18.514Z,102011.70
2017-10-16T05:52:44.697Z,102011.27
2017-10-16T05:55:11.196Z,102009.94
2017-10-16T05:57:37.560Z,102010.39
2017-10-16T06:00:03.781Z,102020.91
2017-10-16T06:02:29.965Z,102027.02
2017-10-16T06:04:56.266Z,102021.32
2017-10-16T06:07:22.515Z,102016.95
2017-10-16T06:09:48.724Z,102018.70
2017-10-16T06:12:15.354Z,102023.51
2017-10-16T06:14:41.840Z,102025.25
2017-10-16T06:17:08.113Z,102025.70
2017-10-16T06:19:34.749Z,102026.56
2017-10-16T06:22:00.933Z,102026.57
2017-10-16T06:24:27.117Z,102030.08
2017-10-16T06:26:53.362Z,102025.23
2017-10-16T06:29:19.615Z,102030.49
2017-10-16T06:31:45.861Z,102024.34
2017-10-16T06:34:12.487Z,102030.90
2017-10-16T06:36:38.699Z,102037.48
2017-10-16T06:39:04.881Z,102042.75
2017-10-16T06:41:31.477Z,102040.98
2017-10-16T06:43:58.009Z,102053.24
2017-10-16T06:46:24.221Z,102048.83
2017-10-16T06:48:50.492Z,102049.28
2017-10-16T06:51:16.698Z,102050.18
2017-10-16T06:53:42.898Z,102050.60
2017-10-16T06:56:09.154Z,102043.16
2017-10-16T06:58:35.389Z,102038.30
2017-10-16T07:01:01.602Z,102040.93
2017-10-16T07:03:27.858Z,102040.53
2017-10-16T07:05:54.082Z,102044.91
2017-10-16T07:08:20.322Z,102039.61
2017-10-16T07:10:46.547Z,102038.30
2017-10-16T07:13:12.818Z,102040.05
2017-10-16T07:15:39.286Z,102040.94
2017-10-16T07:18:05.478Z,102044.88
2017-10-16T07:20:32.198Z,102048.38
2017-10-16T07:22:58.485Z,102043.56
2017-10-16T07:25:24.670Z,102044.86
2017-10-16T07:27:50.954Z,102048.81
2017-10-16T07:30:17.163Z,102043.55
2017-10-16T07:32:43.341Z,102049.25
2017-10-16T07:35:09.933Z,102054.52
2017-10-16T07:37:36.134Z,102054.50
2017-10-16T07:40:02.334Z,102055.39
2017-10-16T07:42:28.586Z,102061.96
2017-10-16T07:44:54.751Z,102056.70
2017-10-16T07:47:21.015Z,102053.63
2017-10-16T07:49:47.578Z,102049.68
2017-10-16T07:52:13.797Z,102052.72
2017-10-16T07:54:40.003Z,102053.16
2017-10-16T07:57:06.323Z,102054.03
2017-10-16T07:59:32.501Z,102059.23
2017-10-16T08:01:58.714Z,102063.64
2017-10-16T08:04:25.639Z,102066.22
2017-10-16T08:06:51.832Z,102062.27
2017-10-16T08:09:18.102Z,102062.21
2017-10-16T08:11:44.358Z,102067.46
2017-10-16T08:14:10.910Z,102073.60
2017-10-16T08:16:37.109Z,102074.03
2017-10-16T08:19:03.658Z,102075.30
2017-10-16T08:21:29.842Z,102080.58
2017-10-16T08:23:56.066Z,102069.17
2017-10-16T08:26:22.350Z,102069.18
2017-10-16T08:28:48.530Z,102071.32
2017-10-16T08:31:15.018Z,102067.80
2017-10-16T08:33:41.600Z,102065.59
2017-10-16T08:36:07.814Z,102063.37
2017-10-16T08:38:34.006Z,102069.47
2017-10-16T08:41:00.337Z,102077.34
2017-10-16T08:43:26.605Z,102079.05
2017-10-16T08:45:52.843Z,102082.53
2017-10-16T08:48:19.138Z,102081.63
2017-10-16T08:50:45.324Z,102082.06
2017-10-16T08:53:11.890Z,102078.09
2017-10-16T08:55:38.465Z,102079.80
2017-10-16T08:58:04.723Z,102074.94
2017-10-16T09:00:32.026Z,102084.98
2017-10-16T09:02:58.371Z,102091.09
2017-10-16T09:05:24.595Z,102086.67
2017-10-16T09:07:50.804Z,102100.30
2017-10-16T09:10:17.270Z,102104.70
2017-10-16T09:12:43.542Z,102100.75
2017-10-16T09:15:09.738Z,102096.80
2017-10-16T09:17:36.470Z,102087.59
2017-10-16T09:20:02.651Z,102095.92
2017-10-16T09:22:29.200Z,102091.07
2017-10-16T09:24:55.454Z,102101.14
2017-10-16T09:27:21.662Z,102095.42
2017-10-16T09:29:47.892Z,102097.58
2017-10-16T09:32:14.449Z,102099.73
2017-10-16T09:34:40.647Z,102097.95
2017-10-16T09:37:06.855Z,102100.55
2017-10-16T09:39:33.134Z,102104.01
2017-10-16T09:41:59.358Z,102102.19
2017-10-16T09:44:26.262Z,102107.81
2017-10-16T09:46:52.434Z,102108.65
2017-10-16T09:49:18.921Z,102102.92
2017-10-16T09:51:45.561Z,102109.11
2017-10-16T09:54:11.753Z,102103.85
2017-10-16T09:56:37.967Z,102110.48
2017-10-16T10:01:36.046Z,102099.95
2017-10-16T10:04:02.280Z,102095.14
2017-10-16T10:06:28.869Z,102103.91
2017-10-16T10:08:55.061Z,102102.98
2017-10-16T10:11:21.436Z,102108.20
2017-10-16T10:13:48.114Z,102106.02
2017-10-16T10:16:14.336Z,102113.02
2017-10-16T10:18:40.520Z,102110.37
2017-10-16T10:21:06.846Z,102109.02
2017-10-16T10:23:33.097Z,102105.95
2017-10-16T10:25:59.523Z,102119.55
2017-10-16T10:28:26.077Z,102117.75
2017-10-16T10:30:52.267Z,102126.07
2017-10-16T10:33:18.440Z,102129.11
2017-10-16T10:35:44.901Z,102129.95
2017-10-16T10:38:11.077Z,102133.02
2017-10-16T10:40:37.398Z,102129.03
2017-10-16T10:43:03.580Z,102130.80
2017-10-16T10:45:29.775Z,102129.48
2017-10-16T10:47:56.135Z,102132.08
2017-10-16T10:50:22.314Z,102122.81
2017-10-16T10:52:48.532Z,102121.05
2017-10-16T10:55:15.074Z,102126.26
2017-10-16T10:57:41.430Z,102117.01
2017-10-16T11:00:07.627Z,102120.07
2017-10-16T11:02:33.827Z,102115.66
2017-10-16T11:05:00.640Z,102120.47
2017-10-16T11:07:26.882Z,102118.72
2017-10-16T11:09:53.075Z,102109.44
2017-10-16T11:12:19.325Z,102107.67
2017-10-16T11:14:45.819Z,102116.44
2017-10-16T11:17:12.047Z,102116.86
2017-10-16T11:19:38.382Z,102116.81
2017-10-16T11:22:04.806Z,102117.64
2017-10-16T11:24:31.023Z,102120.74
2017-10-16T11:26:57.877Z,102113.26
2017-10-16T11:29:24.062Z,102124.20
2017-10-16T11:31:50.255Z,102114.92
2017-10-16T11:34:16.480Z,102123.23
2017-10-16T11:36:42.653Z,102118.36
2017-10-16T11:39:08.838Z,102118.31
2017-10-16T11:41:35.049Z,102115.66
2017-10-16T11:44:01.576Z,102111.69
2017-10-16T11:46:28.158Z,102111.64
2017-10-16T11:48:54.349Z,102104.13
2017-10-16T11:51:20.550Z,102112.41
2017-10-16T11:53:47.150Z,102109.75
2017-10-16T11:56:13.354Z,102107.51
2017-10-16T11:58:39.538Z,102107.02
2017-10-16T12:01:05.891Z,102102.61
2017-10-16T12:03:32.140Z,102105.20
2017-10-16T12:05:58.757Z,102100.80
2017-10-16T12:08:25.061Z,102098.09
2017-10-16T12:10:51.312Z,102106.80
2017-10-16T12:13:17.525Z,102107.16
2017-10-16T12:15:44.092Z,102111.53
2017-10-16T12:18:10.447Z,102113.28
2017-10-16T12:20:36.674Z,102109.25
2017-10-16T12:23:03.279Z,102103.94
2017-10-16T12:25:29.516Z,102098.64
2017-10-16T12:27:55.767Z,102096.39
2017-10-16T12:30:22.375Z,102092.83
2017-10-16T12:32:48.638Z,102091.45
2017-10-16T12:35:14.826Z,102085.70
2017-10-16T12:37:41.110Z,102081.69
2017-10-16T12:40:07.298Z,102083.80
2017-10-16T12:42:33.753Z,102082.03
2017-10-16T12:44:59.990Z,102076.29
2017-10-16T12:47:26.198Z,102079.29
2017-10-16T12:49:52.447Z,102085.81
2017-10-16T12:52:18.889Z,102081.33
2017-10-16T12:54:45.083Z,102072.48
2017-10-16T12:57:11.424Z,102073.72
2017-10-16T12:59:37.669Z,102066.59
2017-10-16T13:02:04.038Z,102070.95
2017-10-16T13:04:30.332Z,102072.16
2017-10-16T13:06:56.598Z,102062.83
2017-10-16T13:09:22.880Z,102067.15
2017-10-16T13:11:49.529Z,102070.15
2017-10-16T13:14:15.786Z,102066.10
2017-10-16T13:16:42.089Z,102068.22
2017-10-16T13:19:08.497Z,102053.19
2017-10-16T13:21:34.954Z,102050.05
2017-10-16T13:24:01.440Z,102047.75
2017-10-16T13:26:27.991Z,102045.06
2017-10-16T13:28:54.203Z,102043.20
2017-10-16T13:31:20.547Z,102047.08
2017-10-16T13:33:47.418Z,102045.67
2017-10-16T13:36:13.647Z,102046.05
2017-10-16T13:38:39.878Z,102042.94
2017-10-16T13:41:06.355Z,102043.75
2017-10-16T13:43:32.624Z,102043.72
2017-10-16T13:45:58.924Z,102040.52
2017-10-16T13:48:25.233Z,102044.36
2017-10-16T13:50:51.470Z,102042.03
2017-10-16T13:53:18.014Z,102042.74
2017-10-16T13:55:44.798Z,102043.50
2017-10-16T13:58:11.079Z,102042.92
2017-10-16T14:00:37.607Z,102040.19
2017-10-16T14:03:04.002Z,102028.69
2017-10-16T14:05:30.484Z,102034.80
2017-10-16T14:07:57.226Z,102035.06
2017-10-16T14:10:23.551Z,102033.64
2017-10-16T14:12:49.863Z,102032.19
2017-10-16T14:15:16.223Z,102037.37
2017-10-16T14:17:42.910Z,102039.77
2017-10-16T14:20:09.214Z,102035.34
2017-10-16T14:22:35.484Z,102031.27
2017-10-16T14:25:02.202Z,102035.30
2017-10-16T14:27:28.462Z,102033.38
2017-10-16T14:29:55.024Z,102025.41
2017-10-16T14:32:21.427Z,102028.12
2017-10-16T14:34:48.089Z,102024.31
2017-10-16T14:37:14.318Z,102024.86
2017-10-16T14:39:40.513Z,102014.86
2017-10-16T14:42:06.710Z,102014.69
2017-10-16T14:44:33.354Z,102015.31
2017-10-16T14:46:59.569Z,102011.09
2017-10-16T14:49:25.791Z,102021.41
2017-10-16T14:51:52.309Z,102016.33
2017-10-16T14:54:18.528Z,102017.87
2017-10-16T14:56:44.770Z,102014.59
2017-10-16T14:59:17.059Z,102012.63
2017-10-16T15:01:43.314Z,102016.83
2017-10-16T15:04:09.530Z,102013.53
2017-10-16T15:06:36.322Z,102018.10
2017-10-16T15:09:02.595Z,102021.28
2017-10-16T15:11:28.946Z,102008.23
2017-10-16T15:13:55.573Z,102003.52
2017-10-16T15:16:22.184Z,102001.81
2017-10-16T15:18:48.531Z,101996.66
2017-10-16T15:21:15.538Z,101997.61
2017-10-16T15:23:41.720Z,101998.11
2017-10-16T15:26:07.943Z,102000.84
2017-10-16T15:28:34.198Z,101991.22
2017-10-16T15:31:00.464Z,101992.63
2017-10-16T15:33:26.641Z,101992.72
2017-10-16T15:35:52.920Z,101996.78
2017-10-16T15:38:19.445Z,101995.98
2017-10-16T15:40:45.977Z,101995.17
2017-10-16T15:43:12.510Z,101997.42
2017-10-16T15:45:38.740Z,101993.55
2017-10-16T15:48:05.063Z,101995.81
2017-10-16T15:50:31.854Z,101991.50
2017-10-16T15:52:58.041Z,101992.44
2017-10-16T15:55:24.269Z,101990.33
2017-10-16T15:57:50.599Z,101999.19
2017-10-16T16:00:16.851Z,101988.72
2017-10-16T16:02:43.287Z,101993.14
2017-10-16T16:05:09.534Z,101992.76
2017-10-16T16:07:36.065Z,101995.45
2017-10-16T16:10:02.245Z,102002.11
2017-10-16T16:12:28.711Z,101996.86
2017-10-16T16:14:55.249Z,101998.23
2017-10-16T16:17:21.528Z,102005.30
2017-10-16T16:19:47.897Z,102007.14
2017-10-16T16:22:14.246Z,102008.98
2017-10-16T16:24:40.477Z,102005.10
2017-10-16T16:27:06.879Z,102004.72
2017-10-16T16:29:33.318Z,101997.77
2017-10-16T16:31:59.520Z,101999.57
2017-10-16T16:34:25.842Z,101995.69
2017-10-16T16:36:52.090Z,101994.43
2017-10-16T16:39:18.302Z,101996.24
2017-10-16T16:41:44.585Z,102000.22
2017-10-16T16:44:10.787Z,101996.75
2017-10-16T16:46:36.980Z,101994.64
2017-10-16T16:49:03.238Z,101999.47
2017-10-16T16:51:29.430Z,102003.04
2017-10-16T16:53:55.626Z,102005.30
2017-10-16T16:56:22.279Z,102009.73
2017-10-16T16:58:48.471Z,102003.16
2017-10-16T17:01:14.706Z,102002.78
2017-10-16T17:03:41.012Z,101997.53
2017-10-16T17:06:07.263Z,102003.70
2017-10-16T17:08:33.516Z,101998.89
2017-10-16T17:10:59.810Z,102000.67
2017-10-16T17:13:26.012Z,102002.02
2017-10-16T17:15:52.457Z,101999.44
2017-10-16T17:18:18.739Z,101997.70
2017-10-16T17:20:44.938Z,101998.16
2017-10-16T17:23:11.446Z,101999.09
2017-10-16T17:25:37.808Z,102002.64
2017-10-16T17:28:04.315Z,101997.38
2017-10-16T17:30:30.524Z,101988.61
2017-10-16T17:32:57.221Z,101995.67
2017-10-16T17:35:23.492Z,101998.77
2017-10-16T17:37:49.692Z,101994.84
2017-10-16T17:40:16.174Z,101994.42
2017-10-16T17:42:42.366Z,101991.85
2017-10-16T17:45:08.539Z,101997.55
2017-10-16T17:47:35.105Z,101989.69
2017-10-16T17:50:01.601Z,101988.37
2017-10-16T17:52:27.815Z,101983.12
2017-10-16T17:54:54.124Z,101980.06
2017-10-16T17:57:20.366Z,101972.19
2017-10-16T17:59:46.567Z,101978.80
2017-10-16T18:02:12.820Z,101976.19
2017-10-16T18:04:39.026Z,101970.03
2017-10-16T18:07:05.203Z,101962.16
2017-10-16T18:09:31.568Z,101967.86
2017-10-16T18:11:58.062Z,101963.45
2017-10-16T18:14:24.707Z,101963.91
2017-10-16T18:16:51.382Z,101958.23
2017-10-16T18:19:17.589Z,101957.81
2017-10-16T18:21:43.791Z,101952.55
2017-10-16T18:24:10.432Z,101953.45
2017-10-16T18:26:36.634Z,101948.20
2017-10-16T18:29:02.924Z,101958.33
2017-10-16T18:31:29.282Z,101960.08
2017-10-16T18:33:55.461Z,101954.84
2017-10-16T18:36:21.674Z,101952.17
2017-10-16T18:38:48.109Z,101952.64
2017-10-16T18:41:14.286Z,101953.95
2017-10-16T18:43:40.523Z,101953.98
2017-10-16T18:46:06.784Z,101956.64
2017-10-16T18:48:32.993Z,101946.09
2017-10-16T18:50:59.193Z,101943.02
2017-10-16T18:53:25.546Z,101943.48
2017-10-16T18:55:51.756Z,101938.66
2017-10-16T18:58:18.036Z,101931.22
2017-10-16T19:00:44.718Z,101936.07
2017-10-16T19:03:10.922Z,101939.16
2017-10-16T19:05:37.134Z,101937.38
2017-10-16T19:08:03.488Z,101936.97
2017-10-16T19:10:29.770Z,101941.80
2017-10-16T19:12:56.057Z,101940.48
2017-10-16T19:15:22.394Z,101938.75
2017-10-16T19:17:48.652Z,101937.42
2017-10-16T19:20:15.179Z,101938.77
2017-10-16T19:22:41.850Z,101944.48
2017-10-16T19:25:08.234Z,101942.70
2017-10-16T19:27:34.543Z,101944.94
2017-10-16T19:30:00.910Z,101946.75
2017-10-16T19:32:27.118Z,101951.13
2017-10-16T19:34:53.431Z,101939.21
2017-10-16T19:37:19.738Z,101944.82
2017-10-16T19:39:46.061Z,101944.31
2017-10-16T19:42:12.537Z,101940.31
2017-10-16T19:44:38.886Z,101943.39
2017-10-16T19:47:05.088Z,101948.67
2017-10-16T19:49:31.531Z,101944.73
2017-10-16T19:51:57.893Z,101943.84
2017-10-16T19:54:24.099Z,101938.56
2017-10-16T19:56:50.638Z,101935.02
2017-10-16T19:59:16.982Z,101932.38
2017-10-16T20:01:43.190Z,101935.48
2017-10-16T20:04:09.410Z,101926.26
2017-10-16T20:06:35.661Z,101936.80
2017-10-16T20:09:02.131Z,101937.25
2017-10-16T20:11:28.390Z,101938.56
2017-10-16T20:13:54.771Z,101936.78
2017-10-16T20:16:20.986Z,101930.56
2017-10-16T20:18:47.246Z,101921.31
2017-10-16T20:21:13.578Z,101924.82
2017-10-16T20:23:39.807Z,101924.80
2017-10-16T20:26:06.081Z,101920.43
2017-10-16T20:28:32.442Z,101917.79
2017-10-16T20:30:58.720Z,101923.98
2017-10-16T20:33:25.165Z,101925.73
2017-10-16T20:35:51.487Z,101919.97
2017-10-16T20:38:17.733Z,101921.28
2017-10-16T20:40:44.071Z,101919.11
2017-10-16T20:43:10.358Z,101927.05
2017-10-16T20:45:36.654Z,101931.00
2017-10-16T20:48:02.858Z,101928.33
2017-10-16T20:50:29.194Z,101926.16
2017-10-16T20:52:55.489Z,101926.61
2017-10-16T20:55:21.708Z,101919.58
2017-10-16T20:57:48.040Z,101924.41
2017-10-16T21:00:15.209Z,101927.92
2017-10-16T21:02:41.657Z,101924.82
2017-10-16T21:05:07.911Z,101923.06
2017-10-16T21:07:34.379Z,101915.16
2017-10-16T21:10:00.599Z,101913.02
2017-10-16T21:12:26.959Z,101909.50
2017-10-16T21:14:53.211Z,101913.41
2017-10-16T21:17:19.453Z,101910.72
2017-10-16T21:19:45.728Z,101913.77
2017-10-16T21:22:11.947Z,101919.09
2017-10-16T21:24:38.227Z,101917.31
2017-10-16T21:27:04.523Z,101914.23
2017-10-16T21:29:30.728Z,101911.63
2017-10-16T21:31:56.934Z,101914.26
2017-10-16T21:34:23.454Z,101916.88
2017-10-16T21:36:49.674Z,101914.66
2017-10-16T21:39:16.119Z,101909.80
2017-10-16T21:41:42.435Z,101909.83
2017-10-16T21:44:08.788Z,101913.34
2017-10-16T21:46:34.989Z,101914.24
2017-10-16T21:49:01.343Z,101913.80
2017-10-16T21:51:27.602Z,101909.38
2017-10-16T21:53:53.810Z,101906.80
2017-10-16T21:56:20.101Z,101907.20
2017-10-16T21:58:46.386Z,101912.92
2017-10-16T22:01:12.602Z,101909.39
2017-10-16T22:03:38.949Z,101905.89
2017-10-16T22:06:05.242Z,101900.18
2017-10-16T22:08:31.695Z,101896.16
2017-10-16T22:10:58.290Z,101896.56
2017-10-16T22:13:24.502Z,101903.60
2017-10-16T22:15:50.694Z,101906.70
2017-10-16T22:18:17.006Z,101909.35
2017-10-16T22:20:43.247Z,101909.39
2017-10-16T22:23:10.325Z,101901.94
2017-10-16T22:25:36.691Z,101906.36
2017-10-16T22:28:03.144Z,101909.86
2017-10-16T22:30:29.358Z,101905.92
2017-10-16T22:32:55.714Z,101904.16
2017-10-16T22:35:22.047Z,101906.38
2017-10-16T22:37:48.266Z,101907.69
2017-10-16T22:40:14.761Z,101906.84
2017-10-16T22:42:41.232Z,101909.91
2017-10-16T22:45:07.492Z,101904.23
2017-10-16T22:47:34.452Z,101906.39
2017-10-16T22:50:00.658Z,101920.05
2017-10-16T22:52:26.915Z,101909.47
2017-10-16T22:54:53.263Z,101912.11
2017-10-16T22:57:19.543Z,101914.28
2017-10-16T22:59:45.729Z,101913.84
2017-10-16T23:02:12.003Z,101915.16
2017-10-16T23:04:38.241Z,101915.63
2017-10-16T23:07:04.535Z,101910.34
2017-10-16T23:09:31.125Z,101921.36
2017-10-16T23:11:57.590Z,101923.97
2017-10-16T23:14:24.121Z,101919.21
2017-10-16T23:16:50.394Z,101919.21
2017-10-16T23:19:16.682Z,101915.65
2017-10-16T23:21:42.946Z,101919.58
2017-10-16T23:24:09.484Z,101915.63
2017-10-16T23:26:35.701Z,101919.55
2017-10-16T23:29:01.922Z,101913.38
2017-10-16T23:31:28.192Z,101913.43
2017-10-16T23:33:54.416Z,101908.10
2017-10-16T23:36:20.614Z,101921.28
2017-10-16T23:38:46.945Z,101916.06
2017-10-16T23:41:13.554Z,101923.98
2017-10-16T23:43:39.756Z,101931.44
2017-10-16T23:46:06.092Z,101933.20
2017-10-16T23:48:32.357Z,101930.07
2017-10-16T23:50:58.818Z,101921.73
2017-10-16T23:53:25.158Z,101925.70
2017-10-16T23:55:51.378Z,101930.95
2017-10-16T23:58:17.587Z,101936.66
